createdAt,value
2022-10-05T04:39:24.520Z,7.53
2022-10-05T04:42:19.357Z,7.50
2022-10-05T04:52:40.198Z,7.44
2022-10-05T05:29:41.785Z,7.44
2022-10-05T05:38:57.635Z,7.56
2022-10-05T05:39:58.176Z,7.58
2022-10-05T05:57:43.954Z,7.81
2022-10-05T06:01:44.186Z,7.85
2022-10-05T06:03:58.310Z,7.94
2022-10-05T06:06:21.599Z,8.08
2022-10-05T06:08:40.545Z,8.18
2022-10-05T06:19:06.631Z,8.76
2022-10-05T06:22:28.369Z,8.96
2022-10-05T06:24:45.303Z,9.06
2022-10-05T06:29:59.899Z,9.28
2022-10-05T06:34:48.146Z,9.57
2022-10-05T06:37:08.461Z,9.76
2022-10-05T06:39:25.931Z,9.88
2022-10-05T06:44:18.168Z,10.10
2022-10-05T07:49:21.820Z,13.25
2022-10-05T07:54:29.650Z,13.46
2022-10-05T08:03:29.789Z,13.84
2022-10-05T08:26:22.388Z,14.74
2022-10-05T09:10:38.577Z,15.72
2022-10-05T09:25:42.043Z,16.09
2022-10-05T09:38:26.013Z,17.20
2022-10-05T09:52:46.884Z,16.98
2022-10-05T10:24:04.125Z,18.10
2022-10-05T10:26:44.714Z,18.27
2022-10-05T10:57:12.651Z,19.65
2022-10-05T11:05:04.071Z,20.02
2022-10-05T11:13:06.177Z,19.33
2022-10-05T11:23:41.086Z,18.76
2022-10-05T11:36:22.718Z,18.79
2022-10-05T11:40:15.942Z,18.59
2022-10-05T11:42:32.590Z,18.70
2022-10-05T11:44:50.482Z,18.80
2022-10-05T11:47:08.585Z,18.83
2022-10-05T11:49:28.930Z,18.90
2022-10-05T11:51:47.878Z,19.14
2022-10-05T11:54:07.607Z,19.24
2022-10-05T11:56:24.377Z,19.36
2022-10-05T11:58:45.091Z,19.53
2022-10-05T12:01:05.651Z,19.65
2022-10-05T12:03:21.378Z,19.75
2022-10-05T12:05:42.000Z,19.76
2022-10-05T12:08:02.976Z,19.78
2022-10-05T12:10:23.671Z,19.80
2022-10-05T12:12:41.893Z,19.84
2022-10-05T12:15:00.253Z,19.70
2022-10-05T12:17:18.310Z,19.65
2022-10-05T12:19:48.443Z,19.75
2022-10-05T12:22:25.736Z,19.75
2022-10-05T12:24:42.805Z,19.75
2022-10-05T12:27:11.802Z,19.72
2022-10-05T12:29:29.923Z,19.70
2022-10-05T12:31:59.800Z,19.79
2022-10-05T12:34:25.837Z,19.84
2022-10-05T12:37:03.073Z,19.79
2022-10-05T12:37:43.109Z,19.78
2022-10-05T12:40:00.476Z,19.79
2022-10-05T12:42:18.568Z,19.78
2022-10-05T12:44:34.276Z,19.75
2022-10-05T12:47:42.196Z,19.63
2022-10-05T12:49:58.606Z,19.61
2022-10-05T12:52:15.310Z,19.65
2022-10-05T12:54:37.180Z,19.60
2022-10-05T12:56:57.196Z,19.58
2022-10-05T12:59:15.336Z,19.55
2022-10-05T13:01:31.450Z,19.54
2022-10-05T13:03:51.593Z,19.68
2022-10-05T13:06:12.447Z,19.73
2022-10-05T13:08:51.142Z,19.76
2022-10-05T13:11:09.282Z,19.80
2022-10-05T13:13:27.338Z,19.73
2022-10-05T13:15:43.905Z,19.70
2022-10-05T13:18:02.014Z,19.78
2022-10-05T13:20:22.632Z,19.72
2022-10-05T13:22:39.203Z,19.68
2022-10-05T13:24:54.752Z,19.65
2022-10-05T13:27:11.564Z,19.53
2022-10-05T13:29:30.953Z,19.48
2022-10-05T13:31:47.429Z,19.47
2022-10-05T13:34:08.101Z,19.51
2022-10-05T13:36:28.513Z,19.53
2022-10-05T13:38:49.844Z,19.48
2022-10-05T13:41:11.114Z,19.39
2022-10-05T13:43:32.712Z,19.33
2022-10-05T13:45:55.820Z,19.36
2022-10-05T13:48:11.374Z,19.33
2022-10-05T13:50:29.796Z,19.32
2022-10-05T13:52:56.136Z,19.29
2022-10-05T13:55:53.693Z,19.36
2022-10-05T13:58:13.121Z,19.42
2022-10-05T14:00:32.062Z,19.40
2022-10-05T14:02:50.189Z,19.32
2022-10-05T14:05:10.659Z,19.33
2022-10-05T14:07:27.418Z,19.32
2022-10-05T14:09:45.483Z,19.29
2022-10-05T14:12:00.091Z,19.25
2022-10-05T14:14:20.738Z,19.15
2022-10-05T14:16:37.878Z,19.11
2022-10-05T14:18:54.352Z,19.06
2022-10-05T14:21:13.742Z,19.11
2022-10-05T14:23:34.016Z,19.14
2022-10-05T14:25:49.571Z,19.02
2022-10-05T14:28:10.221Z,18.94
2022-10-05T14:30:30.885Z,18.83
2022-10-05T14:32:51.434Z,18.84
2022-10-05T14:35:11.995Z,18.91
2022-10-05T14:37:30.017Z,18.94
2022-10-05T14:39:50.694Z,18.83
2022-10-05T14:42:09.803Z,18.77
2022-10-05T14:44:28.972Z,18.84
2022-10-05T14:46:49.445Z,18.91
2022-10-05T14:49:08.510Z,18.92
2022-10-05T14:51:25.121Z,18.95
2022-10-05T14:53:45.723Z,18.91
2022-10-05T14:56:02.267Z,18.83
2022-10-05T14:58:18.836Z,18.73
2022-10-05T15:00:39.559Z,18.65
2022-10-05T15:02:59.876Z,18.62
2022-10-05T15:05:20.689Z,18.64
2022-10-05T15:07:38.722Z,18.59
2022-10-05T15:09:59.334Z,18.42
2022-10-05T15:12:19.950Z,18.49
2022-10-05T15:14:40.468Z,18.42
2022-10-05T15:16:58.611Z,18.36
2022-10-05T15:19:16.713Z,18.34
2022-10-05T15:21:35.815Z,18.36
2022-10-05T15:23:56.361Z,18.37
2022-10-05T15:26:13.047Z,18.40
2022-10-05T15:28:33.133Z,18.33
2022-10-05T15:30:51.635Z,18.27
2022-10-05T15:33:12.260Z,18.12
2022-10-05T15:35:32.828Z,18.03
2022-10-05T15:37:50.912Z,17.97
2022-10-05T15:40:08.951Z,17.84
2022-10-05T15:42:31.971Z,17.97
2022-10-05T15:44:47.810Z,17.95
2022-10-05T15:47:06.788Z,17.74
2022-10-05T15:49:25.905Z,17.63
2022-10-05T15:51:46.551Z,17.47
2022-10-05T15:54:06.791Z,17.30
2022-10-05T15:56:22.636Z,17.30
2022-10-05T15:58:40.684Z,17.25
2022-10-05T16:00:58.898Z,17.17
2022-10-05T16:03:16.981Z,17.07
2022-10-05T16:05:35.112Z,17.03
2022-10-05T16:07:51.551Z,17.11
2022-10-05T16:10:09.535Z,17.06
2022-10-05T16:12:26.229Z,16.95
2022-10-05T16:14:44.298Z,16.90
2022-10-05T16:17:02.353Z,16.80
2022-10-05T16:19:20.558Z,16.60
2022-10-05T16:21:41.707Z,16.52
2022-10-05T16:24:02.228Z,16.42
2022-10-05T16:26:23.308Z,16.33
2022-10-05T16:28:41.474Z,16.16
2022-10-05T16:31:02.117Z,16.00
2022-10-05T16:33:20.404Z,15.82
2022-10-05T16:35:40.657Z,15.70
2022-10-05T16:37:56.288Z,15.59
2022-10-05T16:40:16.901Z,15.61
2022-10-05T16:42:37.563Z,15.52
2022-10-05T16:44:58.077Z,15.36
2022-10-05T16:47:14.639Z,15.17
2022-10-05T16:49:31.666Z,14.95
2022-10-05T16:51:47.811Z,14.86
2022-10-05T16:54:08.974Z,14.80
2022-10-05T16:56:29.051Z,14.72
2022-10-05T16:58:51.141Z,14.67
2022-10-05T17:01:06.221Z,14.57
2022-10-05T17:03:24.272Z,14.46
2022-10-05T17:05:44.867Z,14.31
2022-10-05T17:08:05.421Z,14.13
2022-10-05T17:10:26.026Z,13.96
2022-10-05T17:12:44.204Z,13.81
2022-10-05T17:15:04.747Z,13.62
2022-10-05T17:17:25.403Z,13.54
2022-10-05T17:19:45.993Z,13.40
2022-10-05T17:22:07.059Z,13.32
2022-10-05T17:24:24.952Z,13.21
2022-10-05T17:26:42.818Z,13.09
2022-10-05T17:29:03.708Z,13.02
2022-10-05T17:31:23.994Z,12.93
2022-10-05T17:33:44.392Z,12.85
2022-10-05T17:36:02.490Z,12.77
2022-10-05T17:38:20.209Z,12.71
2022-10-05T17:40:38.783Z,12.66
2022-10-05T17:42:56.299Z,12.56
2022-10-05T17:45:17.009Z,12.48
2022-10-05T17:47:40.451Z,12.41
2022-10-05T17:49:58.770Z,12.30
2022-10-05T17:52:20.263Z,12.24
2022-10-05T17:54:40.909Z,12.13
2022-10-05T17:57:02.018Z,12.05
2022-10-05T17:59:18.966Z,11.99
2022-10-05T18:01:35.583Z,11.93
2022-10-05T18:03:56.421Z,11.93
2022-10-05T18:06:14.303Z,11.87
2022-10-05T18:08:33.194Z,11.85
2022-10-05T18:10:50.124Z,11.80
2022-10-05T18:13:10.961Z,11.75
2022-10-05T18:15:31.749Z,11.74
2022-10-05T18:17:49.697Z,11.68
2022-10-05T18:20:10.349Z,11.62
2022-10-05T18:22:30.842Z,11.57
2022-10-05T18:24:51.625Z,11.54
2022-10-05T18:27:10.628Z,11.49
2022-10-05T18:29:32.223Z,11.43
2022-10-05T18:31:53.263Z,11.41
2022-10-05T18:34:13.437Z,11.34
2022-10-05T18:36:35.519Z,11.32
2022-10-05T18:38:45.224Z,11.28
2022-10-05T18:41:03.241Z,11.29
2022-10-05T18:43:21.310Z,11.21
2022-10-05T18:45:38.019Z,11.20
2022-10-05T18:47:53.516Z,11.25
2022-10-05T18:50:09.986Z,11.34
2022-10-05T18:52:24.676Z,11.39
2022-10-05T18:54:45.744Z,11.36
2022-10-05T18:57:07.331Z,11.36
2022-10-05T18:59:22.423Z,11.41
2022-10-05T19:01:41.013Z,11.46
2022-10-05T19:03:56.113Z,11.49
2022-10-05T19:06:13.204Z,11.57
2022-10-05T19:08:27.615Z,11.61
2022-10-05T19:10:45.352Z,11.75
2022-10-05T19:13:03.434Z,11.97
2022-10-05T19:15:21.679Z,12.06
2022-10-05T19:17:37.125Z,12.08
2022-10-05T19:19:55.174Z,12.11
2022-10-05T19:22:09.737Z,12.20
2022-10-05T19:24:25.353Z,12.33
2022-10-05T19:26:43.492Z,12.45
2022-10-05T19:29:01.703Z,12.54
2022-10-05T19:31:23.085Z,12.57
2022-10-05T19:33:41.640Z,12.70
2022-10-05T19:35:58.258Z,12.70
2022-10-05T19:38:16.157Z,12.79
2022-10-05T19:40:38.528Z,12.79
2022-10-05T19:42:54.920Z,12.74
2022-10-05T19:45:15.736Z,12.74
2022-10-05T19:47:37.536Z,12.89
2022-10-05T19:49:54.413Z,12.95
2022-10-05T19:52:15.335Z,13.07
2022-10-05T19:54:33.539Z,13.12
2022-10-05T19:56:51.682Z,13.25
2022-10-05T19:59:09.711Z,13.22
2022-10-05T20:01:25.466Z,13.15
2022-10-05T20:03:43.407Z,13.33
2022-10-05T20:06:03.617Z,13.24
2022-10-05T20:08:24.945Z,13.12
2022-10-05T20:10:45.221Z,12.99
2022-10-05T20:13:03.330Z,13.02
2022-10-05T20:15:21.339Z,13.09
2022-10-05T20:17:36.670Z,13.12
2022-10-05T20:19:57.098Z,13.06
2022-10-05T20:22:11.759Z,12.95
2022-10-05T20:24:27.349Z,12.77
2022-10-05T20:26:45.381Z,12.57
2022-10-05T20:29:03.474Z,12.45
2022-10-05T20:31:19.075Z,12.41
2022-10-05T20:33:33.622Z,12.38
2022-10-05T20:35:48.191Z,12.51
2022-10-05T20:38:06.314Z,12.57
2022-10-05T20:40:21.269Z,12.57
2022-10-05T20:42:36.883Z,12.46
2022-10-05T20:44:56.985Z,12.38
2022-10-05T20:47:15.604Z,12.30
2022-10-05T20:49:31.173Z,12.26
2022-10-05T20:51:51.776Z,12.26
2022-10-05T20:54:08.299Z,12.29
2022-10-05T20:56:26.453Z,12.49
2022-10-05T20:58:47.353Z,12.69
2022-10-05T21:01:08.027Z,12.85
2022-10-05T21:03:29.140Z,12.96
2022-10-05T21:05:47.080Z,12.88
2022-10-05T21:08:07.634Z,12.81
2022-10-05T21:10:28.298Z,12.89
2022-10-05T21:12:48.928Z,12.96
2022-10-05T21:15:04.474Z,13.03
2022-10-05T21:17:25.171Z,12.96
2022-10-05T21:19:41.631Z,12.93
2022-10-05T21:22:02.312Z,12.82
2022-10-05T21:24:20.779Z,12.95
2022-10-05T21:26:36.125Z,12.99
2022-10-05T21:28:54.511Z,13.04
2022-10-05T21:31:15.034Z,13.11
2022-10-05T21:33:35.726Z,13.24
2022-10-05T21:35:53.718Z,13.18
2022-10-05T21:38:11.845Z,13.12
2022-10-05T21:40:29.951Z,13.07
2022-10-05T21:42:47.872Z,13.00
2022-10-05T21:45:08.313Z,13.00
2022-10-05T21:47:26.679Z,13.24
2022-10-05T21:49:41.386Z,13.44
2022-10-05T21:51:56.883Z,13.59
2022-10-05T21:54:12.594Z,13.52
2022-10-05T21:56:33.156Z,13.44
2022-10-05T21:58:53.753Z,13.36
2022-10-05T22:01:16.003Z,13.25
2022-10-05T22:03:33.402Z,13.15
2022-10-05T22:05:48.805Z,13.03
2022-10-05T22:08:06.952Z,12.92
2022-10-05T22:10:23.363Z,12.81
2022-10-05T22:12:41.479Z,12.67
2022-10-05T22:14:59.532Z,12.54
2022-10-05T22:17:17.482Z,12.45
2022-10-05T22:19:33.481Z,12.39
2022-10-05T22:21:51.485Z,12.46
2022-10-05T22:24:12.157Z,12.49
2022-10-05T22:26:32.321Z,12.42
2022-10-05T22:28:50.787Z,12.38
2022-10-05T22:31:08.983Z,12.39
2022-10-05T22:33:24.475Z,12.41
2022-10-05T22:35:42.591Z,12.42
2022-10-05T22:38:00.603Z,12.44
2022-10-05T22:39:00.634Z,12.44
2022-10-05T22:41:18.550Z,12.38
2022-10-05T22:43:36.636Z,12.29
2022-10-05T22:45:54.862Z,12.20
2022-10-05T22:48:12.923Z,12.12
2022-10-05T22:50:29.791Z,12.12
2022-10-05T22:52:50.264Z,12.15
2022-10-05T22:55:08.787Z,12.24
2022-10-05T22:57:26.458Z,12.19
2022-10-05T22:59:43.010Z,12.26
2022-10-05T23:02:01.525Z,12.60
2022-10-05T23:04:19.209Z,12.63
2022-10-05T23:06:33.772Z,12.63
2022-10-05T23:08:52.737Z,12.78
2022-10-05T23:11:09.953Z,12.95
2022-10-05T23:13:28.467Z,13.12
2022-10-05T23:15:43.823Z,13.06
2022-10-05T23:18:01.812Z,13.06
2022-10-05T23:20:19.983Z,13.27
2022-10-05T23:22:36.852Z,13.36
2022-10-05T23:24:54.589Z,13.47
2022-10-05T23:27:12.828Z,13.52
2022-10-05T23:29:31.001Z,13.51
2022-10-05T23:31:48.990Z,13.56
2022-10-05T23:34:04.505Z,13.40
2022-10-05T23:36:25.239Z,13.44
2022-10-05T23:38:43.213Z,13.46
2022-10-05T23:41:01.095Z,13.52
2022-10-05T23:43:16.685Z,13.44
2022-10-05T23:45:34.835Z,13.40
2022-10-05T23:47:53.371Z,13.30
2022-10-05T23:50:09.869Z,13.25
2022-10-05T23:52:27.864Z,13.58
2022-10-05T23:54:46.072Z,13.62
2022-10-05T23:57:06.480Z,13.61
2022-10-05T23:59:24.712Z,13.49
